Time;durP1;ratioP1;P1;durP2;ratioP2;P2;SDS_P1;SDS_P2;PMS_P1;PMS_P2;Temp;Humidity;BMP_temperature;BMP_pressure;BME280_temperature;BME280_humidity;BME280_pressure;Samples;Min_cycle;Max_cycle;Signal;HPM_P1;HPM_P2
2021/07/28 00:01:04;;;;;;;5.72;2.58;;;16.20;99.90;;;16.10;89.83;101033.59;4167036;28;20072;-73
2021/07/28 00:03:05;;;;;;;5.38;2.42;;;16.20;99.90;;;15.97;90.03;101039.56;4168153;28;20025;-73
2021/07/28 00:05:07;;;;;;;5.57;2.90;;;16.10;99.90;;;15.92;90.75;101036.63;4150388;28;20080;-73
2021/07/28 00:07:11;;;;;;;9.93;2.83;;;16.10;99.90;;;15.83;91.27;101035.09;4199775;28;20024;-73
2021/07/28 00:09:11;;;;;;;;;;;16.00;99.90;;;15.83;90.88;101029.75;4167392;28;20511;-73
2021/07/28 00:11:14;;;;;;;7.03;2.83;;;16.00;99.90;;;15.89;91.13;101036.97;4167989;28;19916;-73
2021/07/28 00:13:14;;;;;;;6.10;2.95;;;16.00;99.90;;;15.94;91.18;101038.09;4150171;28;20064;-73
2021/07/28 00:15:15;;;;;;;5.45;2.85;;;16.00;99.90;;;15.93;91.24;101035.63;4166775;28;20451;-73
2021/07/28 00:17:17;;;;;;;7.35;3.13;;;16.00;99.90;;;15.93;91.26;101035.63;4167976;28;20489;-73
2021/07/28 00:23:41;;;;;;;4.53;2.65;;;16.00;99.90;;;15.70;92.08;101019.75;4167780;28;20063;-73
2021/07/28 00:25:49;;;;;;;9.52;3.13;;;15.90;99.90;;;15.79;91.77;101010.69;4167802;28;20021;-73
2021/07/28 00:27:50;;;;;;;7.65;3.15;;;15.90;99.90;;;15.83;91.91;101019.91;4165378;28;20038;-73
2021/07/28 00:29:50;;;;;;;7.72;2.70;;;15.90;99.90;;;15.86;91.95;101018.75;4167861;28;20029;-73
2021/07/28 00:31:51;;;;;;;6.72;3.00;;;15.90;99.90;;;15.80;91.96;101020.28;4167846;28;20033;-73
2021/07/28 00:33:53;;;;;;;7.70;2.80;;;15.90;99.90;;;15.79;91.90;101021.31;4166581;28;20034;-73
2021/07/28 00:35:54;;;;;;;5.10;2.42;;;15.90;99.90;;;15.68;92.71;101012.97;4167690;28;20037;-73
2021/07/28 00:38:00;;;;;;;5.85;3.10;;;15.80;99.90;;;15.75;92.44;101027.16;4166721;28;20028;-73
2021/07/28 00:40:03;;;;;;;11.80;3.42;;;15.80;99.90;;;15.61;92.77;101009.38;4167741;28;20030;-73
2021/07/28 00:42:04;;;;;;;9.17;3.50;;;15.80;99.90;;;15.67;92.07;101009.47;4167262;28;20017;-73
2021/07/28 00:44:06;;;;;;;8.88;4.43;;;15.80;99.90;;;15.50;92.27;100998.16;4124696;28;1210707;-73
2021/07/28 00:46:07;;;;;;;5.57;2.80;;;15.70;99.90;;;15.49;93.07;101009.81;4183638;28;20459;-73
2021/07/28 00:48:09;;;;;;;10.45;4.03;;;15.70;99.90;;;15.53;92.88;101012.13;4167276;28;20035;-73
2021/07/28 00:50:10;;;;;;;5.65;2.97;;;15.70;99.90;;;15.50;93.14;101003.47;4168437;28;20482;-73
2021/07/28 00:52:11;;;;;;;10.90;3.72;;;15.70;99.90;;;15.52;93.51;101019.28;4167219;28;20033;-73
2021/07/28 00:54:12;;;;;;;11.10;3.55;;;15.60;99.90;;;15.54;93.61;101013.75;4168362;28;20030;-73
2021/07/28 00:56:14;;;;;;;7.38;3.05;;;15.70;99.90;;;15.45;93.31;101007.66;4168334;28;20028;-73
2021/07/28 00:58:17;;;;;;;6.13;3.15;;;15.60;99.90;;;15.47;93.46;101008.34;4167901;28;20025;-73
2021/07/28 01:00:18;;;;;;;8.43;3.13;;;15.60;99.90;;;15.59;92.39;101009.53;4168388;28;20032;-73
2021/07/28 01:02:19;;;;;;;8.15;3.13;;;15.70;99.90;;;15.62;92.39;101005.72;4166905;28;20045;-73
2021/07/28 01:04:21;;;;;;;10.65;4.20;;;15.70;99.90;;;15.45;92.95;101000.53;4167193;28;20021;-73
2021/07/28 01:06:21;;;;;;;7.85;3.38;;;15.60;99.90;;;15.36;93.25;100987.47;4166896;28;20116;-73
2021/07/28 01:08:23;;;;;;;6.88;2.60;;;15.60;99.90;;;15.39;94.00;101011.88;4168326;28;20026;-72
2021/07/28 01:10:24;;;;;;;5.78;3.10;;;15.60;99.90;;;15.46;93.83;101004.84;4166903;28;20053;-73
2021/07/28 01:12:29;;;;;;;7.82;3.10;;;15.60;99.90;;;15.42;93.65;101005.38;4168179;28;20031;-73
2021/07/28 01:14:30;;;;;;;6.28;2.80;;;15.50;99.90;;;15.35;94.48;101005.25;4166770;28;20032;-73
2021/07/28 01:16:38;;;;;;;8.05;2.85;;;15.60;99.90;;;15.46;93.85;101007.50;4168242;28;20033;-73
2021/07/28 01:18:41;;;;;;;5.40;3.28;;;15.60;99.90;;;15.35;94.58;100999.13;4166956;28;20033;-73
2021/07/28 01:20:45;;;;;;;6.03;3.50;;;15.50;99.90;;;15.37;94.26;100997.94;4167973;28;20029;-73
2021/07/28 01:22:46;;;;;;;6.85;3.58;;;15.50;99.90;;;15.38;94.76;101007.56;4168169;28;20087;-73
2021/07/28 01:24:47;;;;;;;9.32;3.25;;;15.50;99.90;;;15.32;94.41;101000.31;4166952;28;20025;-72
2021/07/28 01:26:49;;;;;;;6.15;2.88;;;15.50;99.90;;;15.31;95.02;101001.31;4160781;28;20068;-73
2021/07/28 01:28:50;;;;;;;10.07;3.83;;;15.50;99.90;;;15.30;94.66;100985.53;4168011;28;20638;-73
2021/07/28 01:31:14;;;;;;;8.50;3.08;;;15.40;99.90;;;15.35;94.80;100997.28;4150517;28;20025;-73
2021/07/28 01:33:15;;;;;;;6.40;3.23;;;15.50;99.90;;;15.38;94.77;101009.41;4167133;28;20116;-73
2021/07/28 01:35:16;;;;;;;6.82;3.60;;;15.50;99.90;;;15.34;94.21;101008.09;4168044;28;20041;-73
2021/07/28 01:37:18;;;;;;;7.43;3.90;;;15.50;99.90;;;15.26;94.61;101009.00;4166862;28;20040;-73
2021/07/28 01:39:19;;;;;;;5.82;3.53;;;15.50;99.90;;;15.27;95.57;100996.53;4184320;28;20052;-73
2021/07/28 01:41:20;;;;;;;9.82;3.72;;;15.40;99.90;;;15.33;95.02;101009.94;4170865;28;20052;-73
2021/07/28 01:43:21;;;;;;;9.55;3.95;;;15.40;99.90;;;15.21;95.40;101014.03;4169296;28;20057;-73
2021/07/28 01:45:22;;;;;;;8.65;3.85;;;15.40;99.90;;;15.29;94.44;101011.28;4186208;28;20033;-73
2021/07/28 01:47:23;;;;;;;7.38;3.53;;;15.40;99.90;;;15.30;94.86;101007.63;4170851;28;20512;-73
2021/07/28 01:49:24;;;;;;;6.22;3.38;;;15.40;99.90;;;15.25;94.80;101009.19;4169559;28;20083;-73
2021/07/28 01:51:25;;;;;;;8.50;3.70;;;15.40;99.90;;;15.21;95.59;101014.03;4169466;28;20591;-73
2021/07/28 01:53:28;;;;;;;9.35;4.50;;;15.40;99.90;;;15.23;96.10;101016.53;4185945;28;20017;-73
2021/07/28 01:55:29;;;;;;;6.55;3.35;;;15.30;99.90;;;15.10;96.17;101019.78;4169546;28;20083;-73
2021/07/28 01:57:30;;;;;;;10.02;3.65;;;15.30;99.90;;;15.09;96.57;101014.63;4169075;28;20029;-72
2021/07/28 01:59:38;;;;;;;7.95;4.05;;;15.30;99.90;;;15.07;96.46;101012.16;4170469;28;20044;-73
2021/07/28 02:01:39;;;;;;;8.85;3.50;;;15.30;99.90;;;15.21;95.85;101014.03;4169404;28;20060;-73
2021/07/28 02:03:40;;;;;;;9.52;3.13;;;15.30;99.90;;;15.20;96.33;101011.56;4170610;28;20052;-73
2021/07/28 02:05:42;;;;;;;7.70;4.05;;;15.30;99.90;;;15.09;96.42;101019.94;4170463;28;20091;-73
2021/07/28 02:07:43;;;;;;;9.40;3.90;;;15.30;99.90;;;14.95;97.12;101008.28;4169197;28;20029;-73
2021/07/28 02:09:44;;;;;;;6.22;3.42;;;15.30;99.90;;;15.14;96.53;101023.72;4158019;28;20033;-73
2021/07/28 02:11:45;;;;;;;8.80;4.35;;;15.30;99.90;;;15.15;96.41;101006.78;4170071;28;20029;-73
2021/07/28 02:13:46;;;;;;;11.63;4.00;;;15.30;99.90;;;15.16;95.91;101007.59;4152651;28;20416;-73
2021/07/28 02:15:48;;;;;;;9.18;3.60;;;15.30;99.90;;;15.15;96.42;101011.25;4168894;28;20029;-73
2021/07/28 02:17:50;;;;;;;8.27;4.05;;;15.30;99.90;;;15.16;95.20;101008.44;4152476;28;20038;-73
2021/07/28 02:19:51;;;;;;;6.72;3.40;;;15.30;99.90;;;15.10;96.11;101016.28;4170385;28;20029;-73
2021/07/28 02:21:51;;;;;;;9.77;3.42;;;15.30;99.90;;;15.14;95.87;101009.63;4152445;28;20552;-73
2021/07/28 02:23:52;;;;;;;6.88;3.35;;;15.20;99.90;;;15.08;95.96;101008.50;4170042;28;20029;-74
2021/07/28 02:25:53;;;;;;;6.82;3.90;;;15.20;99.90;;;15.06;96.24;101012.31;4169092;28;20370;-73
2021/07/28 02:27:55;;;;;;;5.47;3.47;;;15.20;99.90;;;15.08;96.69;101019.13;4185320;28;20055;-73
2021/07/28 02:29:56;;;;;;;6.72;3.22;;;15.20;99.90;;;14.92;96.32;101003.31;4170124;28;20026;-73
2021/07/28 02:31:57;;;;;;;9.20;3.92;;;15.10;99.90;;;14.97;96.82;101022.19;4170099;28;20028;-73
2021/07/28 02:33:57;;;;;;;5.25;3.85;;;15.10;99.90;;;14.95;97.36;101019.72;4170048;28;20037;-73
2021/07/28 02:35:59;;;;;;;8.68;3.80;;;15.10;99.90;;;14.94;97.19;101018.06;4168864;28;20108;-73
2021/07/28 02:38:00;;;;;;;9.15;3.92;;;15.10;99.90;;;14.86;97.79;101023.44;4185498;28;20064;-73
2021/07/28 02:40:02;;;;;;;7.45;4.00;;;15.00;99.90;;;14.85;98.01;101020.94;4168894;28;20561;-73
2021/07/28 02:42:03;;;;;;;8.10;4.07;;;15.00;99.90;;;14.80;97.37;101016.19;4168277;28;20049;-72
2021/07/28 02:44:04;;;;;;;7.35;3.38;;;15.00;99.90;;;14.88;97.56;101018.78;4169749;28;20140;-73
2021/07/28 02:46:05;;;;;;;8.45;3.03;;;15.00;99.90;;;14.83;97.61;101017.66;4168674;28;20029;-73
2021/07/28 02:48:07;;;;;;;9.73;4.07;;;15.00;99.90;;;14.80;97.79;101004.72;4169891;28;20488;-73
2021/07/28 02:50:08;;;;;;;7.22;3.33;;;14.90;99.90;;;14.90;97.40;101015.97;4169624;28;20029;-73
2021/07/28 02:52:09;;;;;;;9.02;3.80;;;15.00;99.90;;;14.88;96.85;101007.31;4168193;28;20139;-73
2021/07/28 02:54:10;;;;;;;7.95;3.20;;;15.00;99.90;;;14.90;97.16;101013.31;4170085;28;20056;-73
2021/07/28 02:56:11;;;;;;;7.75;3.10;;;15.00;99.90;;;14.84;98.10;101021.97;4168638;28;20428;-73
2021/07/28 02:58:12;;;;;;;9.10;3.05;;;14.90;99.90;;;14.74;98.13;101016.88;4184874;28;20044;-73
2021/07/28 03:00:14;;;;;;;8.23;4.13;;;14.90;99.90;;;14.81;97.59;101023.13;4168804;28;20029;-73
2021/07/28 03:02:14;;;;;;;8.70;3.60;;;14.90;99.90;;;14.77;97.80;101016.53;4162297;28;20040;-73
2021/07/28 03:04:16;;;;;;;10.40;3.55;;;14.90;99.90;;;14.77;97.91;101007.75;4169894;28;20382;-73
2021/07/28 03:06:17;;;;;;;8.93;4.15;;;14.90;99.90;;;14.72;98.30;101010.94;4168221;28;20029;-73
2021/07/28 03:08:18;;;;;;;8.00;3.63;;;14.80;99.90;;;14.75;97.66;101007.09;4184869;28;20031;-73
2021/07/28 03:10:19;;;;;;;7.85;3.70;;;14.80;99.90;;;14.79;97.41;101011.03;4184760;28;20570;-73
2021/07/28 03:12:20;;;;;;;7.13;3.63;;;14.90;99.90;;;14.75;97.58;101012.41;4168060;28;20029;-73
2021/07/28 03:14:21;;;;;;;10.07;3.78;;;14.80;99.90;;;14.58;98.54;101013.50;4150438;28;20034;-73
2021/07/28 03:16:21;;;;;;;8.10;3.67;;;14.80;99.90;;;14.66;99.03;101024.09;4168373;28;20037;-73
2021/07/28 03:18:22;;;;;;;8.80;4.15;;;14.80;99.90;;;14.67;99.12;101018.59;4169665;28;20477;-73
2021/07/28 03:20:23;;;;;;;7.15;3.80;;;14.80;99.90;;;14.74;98.35;101021.38;4168106;28;20030;-73
2021/07/28 03:22:25;;;;;;;10.05;4.25;;;14.80;99.90;;;14.72;98.30;101018.06;4167966;28;20040;-73
2021/07/28 03:24:26;;;;;;;6.80;3.63;;;14.80;99.90;;;14.72;98.43;101010.94;4168330;28;20021;-73
2021/07/28 03:26:28;;;;;;;7.38;3.60;;;14.80;99.90;;;14.67;98.45;101018.59;4167781;28;20018;-73
2021/07/28 03:28:29;;;;;;;8.18;3.75;;;14.80;99.90;;;14.69;98.72;101021.06;4168100;28;20049;-73
2021/07/28 03:30:29;;;;;;;6.07;3.35;;;14.80;99.90;;;14.58;99.07;101016.16;4151503;28;20409;-73
2021/07/28 03:32:30;;;;;;;7.00;3.53;;;14.80;99.90;;;14.55;99.36;101019.16;4184637;28;20045;-73
2021/07/28 03:34:31;;;;;;;10.35;3.60;;;14.70;99.90;;;14.61;99.38;101021.09;4168205;28;20029;-73
2021/07/28 03:36:32;;;;;;;5.60;3.92;;;14.80;99.90;;;14.61;98.91;101019.28;4167847;28;20057;-73
2021/07/28 03:38:33;;;;;;;7.45;3.08;;;14.70;99.90;;;14.50;99.22;101019.69;4167813;28;20065;-73
2021/07/28 03:40:34;;;;;;;7.72;3.47;;;14.70;99.90;;;14.52;99.62;101000.91;4151530;28;20032;-73
2021/07/28 03:42:35;;;;;;;8.40;3.63;;;14.70;99.90;;;14.40;99.66;101009.28;4174948;28;20029;-73
2021/07/28 03:44:36;;;;;;;6.60;3.28;;;14.70;99.90;;;14.29;100.00;101011.47;4167640;28;20033;-73
2021/07/28 03:46:37;;;;;;;5.13;2.97;;;14.60;99.90;;;14.37;100.00;101014.09;4184235;28;20025;-73
2021/07/28 03:48:38;;;;;;;9.63;3.42;;;14.60;99.90;;;14.37;100.00;101011.47;4184457;28;20029;-73
2021/07/28 03:50:39;;;;;;;6.15;3.88;;;14.60;99.90;;;14.43;100.00;101015.25;4168973;28;20029;-73
2021/07/28 03:52:39;;;;;;;5.82;2.83;;;14.70;99.90;;;14.40;100.00;101014.59;4167728;28;20068;-73
2021/07/28 03:54:40;;;;;;;6.32;3.88;;;14.70;99.90;;;14.44;100.00;101014.25;4168762;28;20468;-73
2021/07/28 03:56:41;;;;;;;7.78;3.63;;;14.70;99.90;;;14.57;100.00;101010.03;4168708;28;20029;-73
2021/07/28 03:58:42;;;;;;;9.80;3.83;;;14.80;99.90;;;14.63;100.00;101009.34;4168838;28;20063;-73
2021/07/28 04:00:43;;;;;;;7.75;3.95;;;14.90;99.90;;;14.74;100.00;101005.44;4168615;28;20037;-73
2021/07/28 04:02:44;;;;;;;9.77;3.60;;;15.00;99.90;;;14.88;100.00;101012.63;4168393;28;20563;-73
2021/07/28 04:04:45;;;;;;;6.78;3.55;;;15.00;99.90;;;14.95;100.00;101009.09;4168818;28;20025;-73
2021/07/28 04:06:46;;;;;;;6.07;3.45;;;15.10;99.90;;;15.04;100.00;101001.91;4168817;28;20401;-73
2021/07/28 04:08:47;;;;;;;8.68;3.58;;;15.30;99.90;;;15.11;99.77;101008.16;4168711;28;20033;-73
2021/07/28 04:10:48;;;;;;;8.63;3.63;;;15.30;99.90;;;14.98;99.41;101001.78;4167707;28;20156;-73
2021/07/28 04:12:49;;;;;;;7.80;3.75;;;15.30;99.90;;;15.16;97.91;101005.78;4168285;28;20030;-73
2021/07/28 04:14:50;;;;;;;7.22;3.85;;;15.30;99.90;;;15.14;98.55;100999.00;4167733;28;20468;-73
2021/07/28 04:16:50;;;;;;;10.90;3.30;;;15.40;99.90;;;15.11;99.16;100992.22;4168734;28;20112;-73
2021/07/28 04:18:51;;;;;;;9.23;3.67;;;15.40;99.90;;;15.17;99.50;100995.97;4168633;28;20079;-73
2021/07/28 04:20:52;;;;;;;6.70;3.25;;;15.50;99.90;;;15.21;99.08;101003.41;4168281;28;20116;-73
2021/07/28 04:22:53;;;;;;;8.07;2.90;;;15.50;99.90;;;15.36;98.72;101012.22;4168823;28;20362;-73
2021/07/28 04:24:54;;;;;;;7.05;3.03;;;15.50;99.90;;;15.40;98.36;101005.56;4168495;28;20032;-73
2021/07/28 04:26:55;;;;;;;10.57;3.65;;;15.60;99.90;;;15.29;98.83;101000.66;4168468;28;20025;-73
2021/07/28 04:28:56;;;;;;;7.32;3.10;;;15.60;99.90;;;15.30;98.68;101002.31;4167104;28;20025;-73
2021/07/28 04:30:57;;;;;;;7.07;3.25;;;15.60;99.90;;;15.39;98.72;101019.84;4167397;28;20033;-73
2021/07/28 04:32:58;;;;;;;4.30;2.65;;;15.70;99.90;;;15.36;98.74;100990.13;4167279;28;20025;-73
2021/07/28 04:34:59;;;;;;;8.38;3.30;;;15.60;99.90;;;15.50;97.54;100997.38;4150862;28;20041;-73
2021/07/28 04:36:59;;;;;;;6.68;3.00;;;15.70;99.90;;;15.47;98.00;100997.72;4164913;28;20532;-73
2021/07/28 04:39:01;;;;;;;8.55;4.03;;;15.70;99.90;;;15.52;97.29;100992.69;4167236;28;20069;-73
2021/07/28 04:41:02;;;;;;;12.25;3.65;;;15.80;99.90;;;15.55;97.16;101010.94;4168461;28;20532;-73
2021/07/28 04:43:03;;;;;;;5.90;2.92;;;15.80;99.90;;;15.55;96.96;101008.28;4166594;28;20080;-73
2021/07/28 04:45:06;;;;;;;9.00;3.10;;;15.80;99.90;;;15.57;97.09;101000.94;4183475;28;20025;-73
2021/07/28 04:47:07;;;;;;;5.75;3.17;;;15.80;99.90;;;15.62;96.91;101013.69;4167175;28;20025;-73
2021/07/28 04:49:08;;;;;;;7.32;3.30;;;15.90;99.90;;;15.56;97.34;101004.59;4167231;28;20673;-73
2021/07/28 04:51:09;;;;;;;5.97;2.90;;;15.80;99.90;;;15.49;97.32;101011.66;4167370;28;20424;-73
2021/07/28 04:53:10;;;;;;;6.57;2.85;;;15.80;99.90;;;15.56;96.78;101015.22;4167020;28;20421;-73
2021/07/28 04:55:11;;;;;;;6.13;2.50;;;15.90;99.90;;;15.63;96.90;101026.78;4168429;28;20040;-73
2021/07/28 04:57:12;;;;;;;6.80;3.05;;;15.90;99.90;;;15.60;97.03;101018.34;4166912;28;20022;-73
2021/07/28 04:59:13;;;;;;;14.70;4.75;;;15.90;99.90;;;15.64;97.31;101032.94;4167002;28;20072;-73
2021/07/28 05:01:14;;;;;;;8.35;2.88;;;15.90;99.90;;;15.65;97.08;101008.00;4168067;28;20389;-73
2021/07/28 05:03:15;;;;;;;7.53;3.28;;;15.90;99.90;;;15.70;97.21;101019.75;4168286;28;20038;-73
2021/07/28 05:05:16;;;;;;;7.60;3.13;;;15.90;99.90;;;15.77;96.63;101025.97;4168300;28;20026;-73
2021/07/28 05:07:18;;;;;;;7.15;3.40;;;16.00;99.90;;;15.86;94.87;101029.41;4168278;28;20388;-73
2021/07/28 05:09:19;;;;;;;9.52;3.47;;;16.00;99.90;;;15.74;95.18;101020.22;4168270;28;20026;-73
2021/07/28 05:11:20;;;;;;;8.15;3.33;;;16.00;99.90;;;15.84;94.74;101015.44;4166722;28;20052;-73
2021/07/28 05:13:21;;;;;;;6.55;2.80;;;16.00;99.90;;;15.80;95.28;101022.16;4168193;28;20025;-73
2021/07/28 05:15:22;;;;;;;6.75;2.53;;;16.10;99.90;;;15.81;95.69;101015.78;4170793;28;20045;-73
2021/07/28 05:17:24;;;;;;;7.68;3.53;;;16.10;99.90;;;15.70;95.31;101008.28;4170041;28;20504;-73
2021/07/28 05:19:25;;;;;;;7.35;3.10;;;16.10;99.90;;;15.70;96.25;101018.91;4171499;28;20453;-73
2021/07/28 05:21:26;;;;;;;7.95;3.45;;;16.00;99.90;;;15.76;96.25;101012.88;4171245;28;20030;-73
2021/07/28 05:23:27;;;;;;;6.45;2.92;;;16.10;99.90;;;15.76;96.87;101018.19;4171223;28;20021;-73
2021/07/28 05:25:28;;;;;;;7.07;2.80;;;16.10;99.90;;;15.85;96.51;101019.75;4169785;28;20060;-73
2021/07/28 05:27:29;;;;;;;8.43;3.00;;;16.10;99.90;;;15.88;96.50;101027.38;4169590;28;20040;-73
2021/07/28 05:29:30;;;;;;;8.32;3.03;;;16.20;99.90;;;15.89;95.80;101023.69;4171248;28;20022;-73
2021/07/28 05:31:31;;;;;;;10.45;3.45;;;16.20;99.90;;;15.86;96.36;101013.44;4153460;28;20038;-73
2021/07/28 05:33:32;;;;;;;6.43;2.75;;;16.20;99.90;;;15.93;96.22;101024.97;4186266;28;20593;-73
2021/07/28 05:35:33;;;;;;;6.00;2.75;;;16.20;99.90;;;15.97;96.85;101021.78;4178489;28;20061;-73
2021/07/28 05:37:33;;;;;;;6.05;3.13;;;16.30;99.90;;;15.99;96.94;101024.25;4171012;28;20512;-73
2021/07/28 05:39:34;;;;;;;5.43;2.88;;;16.30;99.90;;;15.98;97.51;101033.22;4169754;28;20026;-73
2021/07/28 05:41:35;;;;;;;5.82;2.80;;;16.30;99.90;;;16.00;98.01;101028.56;4169054;28;20026;-73
2021/07/28 05:43:36;;;;;;;4.88;3.00;;;16.30;99.90;;;16.03;97.99;101031.69;4170598;28;20095;-73
2021/07/28 05:45:37;;;;;;;4.50;3.13;;;16.40;99.90;;;16.08;98.04;101028.47;4170940;28;20017;-73
2021/07/28 05:47:38;;;;;;;6.55;3.22;;;16.40;99.90;;;16.17;97.27;101032.66;4169544;28;20029;-73
2021/07/28 05:49:39;;;;;;;5.93;3.45;;;16.40;99.90;;;16.18;97.92;101028.19;4170790;28;20099;-73
2021/07/28 05:51:40;;;;;;;5.78;2.80;;;16.40;99.90;;;16.20;97.45;101024.31;4169203;28;20025;-73
2021/07/28 05:53:41;;;;;;;4.53;3.20;;;16.50;99.90;;;16.16;98.15;101030.22;4170696;28;20493;-73
2021/07/28 05:55:42;;;;;;;8.48;3.17;;;16.50;99.90;;;16.18;98.69;101026.34;4153044;28;20525;-73
2021/07/28 05:57:43;;;;;;;7.80;2.92;;;16.60;99.90;;;16.27;98.20;101027.91;4180144;28;20025;-73
2021/07/28 05:59:44;;;;;;;6.20;2.90;;;16.60;99.90;;;16.32;97.53;101030.81;4170457;28;20036;-73
2021/07/28 06:01:44;;;;;;;9.32;2.67;;;16.70;99.90;;;16.35;97.19;101035.78;4170338;28;20026;-73
2021/07/28 06:03:45;;;;;;;7.47;3.55;;;16.70;99.90;;;16.33;97.44;101034.31;4169342;28;20025;-73
2021/07/28 06:05:46;;;;;;;8.48;3.20;;;16.70;99.90;;;16.42;97.52;101031.38;4191924;28;20028;-73
2021/07/28 06:07:47;;;;;;;8.75;3.38;;;16.80;99.90;;;16.53;96.55;101022.06;4170497;28;20037;-73
2021/07/28 06:09:48;;;;;;;7.03;2.63;;;16.90;99.90;;;16.44;96.73;101023.16;4165370;28;20013;-74
2021/07/28 06:11:49;;;;;;;10.32;3.30;;;16.90;99.90;;;16.47;96.83;101033.44;4184943;28;20033;-74
2021/07/28 06:13:50;;;;;;;4.35;2.60;;;17.00;99.90;;;16.46;97.60;101031.78;4169939;28;20033;-74
2021/07/28 06:15:51;;;;;;;9.23;2.83;;;17.00;99.90;;;16.49;97.37;101026.09;4168590;28;20113;-75
2021/07/28 06:17:52;;;;;;;5.63;3.20;;;17.00;99.90;;;16.51;98.00;101030.25;4169675;28;20033;-75
2021/07/28 06:19:53;;;;;;;8.95;3.03;;;17.00;99.90;;;16.62;97.75;101033.44;4168371;28;20095;-74
2021/07/28 06:21:54;;;;;;;6.55;2.45;;;17.00;99.90;;;16.69;97.29;101026.34;4169628;28;20029;-74
2021/07/28 06:23:59;;;;;;;7.85;2.85;;;17.10;99.90;;;16.82;95.99;101029.97;4168490;28;20041;-74
2021/07/28 06:26:00;;;;;;;7.20;3.50;;;17.20;99.90;;;16.92;95.73;101037.66;4166385;28;20106;-74
2021/07/28 06:28:00;;;;;;;6.80;3.05;;;17.30;99.90;;;16.87;95.81;101040.91;4169390;28;20029;-74
2021/07/28 06:30:02;;;;;;;5.10;2.80;;;17.30;99.90;;;16.89;96.21;101043.38;4169233;28;20018;-73
2021/07/28 06:32:03;;;;;;;9.00;2.88;;;17.40;99.90;;;16.90;96.57;101039.69;4168236;28;20057;-74
2021/07/28 06:34:04;;;;;;;7.60;2.60;;;17.40;99.90;;;17.04;95.27;101041.47;4185104;28;20140;-73
2021/07/28 06:36:05;;;;;;;6.13;2.80;;;17.50;99.90;;;17.07;95.47;101052.59;4169336;28;20060;-73
2021/07/28 06:38:06;;;;;;;7.30;3.30;;;17.50;99.90;;;17.14;94.91;101039.31;4168164;28;20053;-73
2021/07/28 06:40:08;;;;;;;7.20;3.13;;;17.60;99.90;;;17.17;95.17;101041.59;4184638;28;20064;-72
2021/07/28 06:42:09;;;;;;;6.43;2.53;;;17.70;99.90;;;17.19;95.39;101042.22;4167819;28;20026;-72
2021/07/28 06:44:10;;;;;;;6.13;2.75;;;17.80;99.90;;;17.33;94.60;101049.31;4169420;28;20045;-72
2021/07/28 06:46:11;;;;;;;6.85;2.85;;;17.90;99.90;;;17.35;94.17;101041.94;4168203;28;20116;-72
2021/07/28 06:48:12;;;;;;;5.50;2.72;;;18.00;99.90;;;17.35;93.71;101057.13;4169608;28;20555;-73
2021/07/28 06:50:13;;;;;;;4.30;3.20;;;18.10;99.90;;;17.48;92.98;101051.91;4167900;28;20037;-73
2021/07/28 06:52:13;;;;;;;6.30;2.80;;;18.20;99.90;;;17.54;92.86;101051.97;4169330;28;20401;-72
2021/07/28 06:54:14;;;;;;;4.75;3.10;;;18.20;99.90;;;17.56;92.37;101052.59;4168347;28;20030;-73
2021/07/28 06:56:15;;;;;;;5.15;2.33;;;18.30;99.90;;;17.45;92.89;101054.94;4167770;28;20022;-72
2021/07/28 06:58:16;;;;;;;5.53;2.88;;;18.20;99.90;;;17.52;92.42;101054.00;4184333;28;20504;-72
2021/07/28 07:00:17;;;;;;;6.00;2.88;;;18.10;99.90;;;17.55;92.55;101060.81;4169074;28;20025;-73
2021/07/28 07:02:19;;;;;;;5.10;2.88;;;18.10;99.90;;;17.56;93.18;101057.94;4167752;28;20543;-72
2021/07/28 07:04:19;;;;;;;13.50;4.25;;;18.10;99.90;;;17.60;93.43;101055.72;4169118;28;20032;-73
2021/07/28 07:06:20;;;;;;;7.13;3.53;;;18.10;99.90;;;17.56;94.20;101047.28;4169079;28;20022;-72
2021/07/28 07:08:21;;;;;;;5.15;2.92;;;18.20;99.90;;;17.84;92.91;101054.44;4168859;28;20087;-72
2021/07/28 07:10:22;;;;;;;6.28;2.50;;;18.40;99.90;;;17.78;92.49;101045.38;4168840;28;20420;-73
2021/07/28 07:12:25;;;;;;;4.78;3.03;;;18.50;99.90;;;17.75;92.83;101050.28;4168888;28;20032;-72
2021/07/28 07:14:26;;;;;;;7.50;3.00;;;18.50;99.90;;;17.82;92.80;101046.66;4169238;28;20037;-72
2021/07/28 07:16:27;;;;;;;8.32;3.35;;;18.50;99.90;;;17.88;92.90;101050.38;4168127;28;20435;-72
2021/07/28 07:18:27;;;;;;;10.95;3.03;;;18.50;99.90;;;17.97;93.12;101054.53;4184531;28;20063;-73
2021/07/28 07:20:28;;;;;;;9.30;3.40;;;18.50;99.90;;;18.05;92.71;101057.88;4169082;28;20511;-72
2021/07/28 07:22:29;;;;;;;10.07;3.08;;;18.60;99.90;;;18.25;92.08;101053.44;4167709;28;20083;-72
2021/07/28 07:24:30;;;;;;;7.03;3.15;;;18.70;99.90;;;18.32;91.60;101045.47;4169159;28;20078;-72
2021/07/28 07:26:31;;;;;;;6.07;3.05;;;18.90;99.90;;;18.47;91.15;101056.84;4168967;28;20021;-73
2021/07/28 07:28:34;;;;;;;6.32;2.80;;;19.00;99.90;;;18.50;91.31;101055.63;4167807;28;20033;-73
2021/07/28 07:30:35;;;;;;;7.13;3.10;;;19.20;99.90;;;18.60;90.26;101061.44;4168662;28;20049;-72
2021/07/28 07:32:36;;;;;;;8.95;2.92;;;19.30;99.90;;;18.60;90.74;101056.94;4168319;28;20029;-73
2021/07/28 07:34:37;;;;;;;5.28;3.30;;;19.30;99.90;;;18.52;91.37;101059.75;4168675;28;20551;-73
2021/07/28 07:36:38;;;;;;;7.47;3.25;;;19.20;99.90;;;18.48;92.41;101071.03;4168430;28;20116;-73
2021/07/28 07:38:39;;;;;;;7.45;3.38;;;19.10;99.90;;;18.46;92.66;101065.03;4167799;28;20029;-72
2021/07/28 07:40:40;;;;;;;9.65;3.08;;;19.10;99.90;;;18.40;92.82;101061.31;4167780;28;20048;-73
2021/07/28 07:42:41;;;;;;;8.13;3.35;;;19.10;99.90;;;18.39;94.13;101070.38;4168642;28;20029;-72
2021/07/28 07:44:45;;;;;;;7.50;3.05;;;19.00;99.90;;;18.30;94.74;101060.88;4167637;28;20056;-73
2021/07/28 07:46:46;;;;;;;3.75;2.67;;;19.00;99.90;;;18.33;95.25;101062.31;4168887;28;20025;-73
2021/07/28 07:48:47;;;;;;;5.82;2.72;;;19.00;99.90;;;18.51;95.39;101066.16;4168946;28;20087;-73
2021/07/28 07:50:49;;;;;;;7.25;2.80;;;19.10;99.90;;;18.58;95.55;101069.66;4167387;28;20025;-73
2021/07/28 07:52:49;;;;;;;7.68;3.15;;;19.20;99.90;;;18.71;95.17;101068.88;4167683;28;20080;-73
2021/07/28 07:54:50;;;;;;;4.43;2.67;;;19.30;99.90;;;18.61;92.72;101068.41;4166445;28;20050;-73
2021/07/28 07:56:51;;;;;;;6.85;2.83;;;19.40;99.90;;;18.77;92.51;101073.41;4165727;28;20030;-73
2021/07/28 07:58:52;;;;;;;7.45;2.90;;;19.60;99.90;;;18.96;92.67;101071.81;4165156;28;20021;-74
2021/07/28 08:00:53;;;;;;;5.22;2.58;;;19.80;99.90;;;19.12;91.95;101082.94;4166078;28;20028;-73
2021/07/28 08:02:54;;;;;;;3.88;2.25;;;20.00;99.90;;;19.22;91.37;101074.53;4166344;28;20033;-73
2021/07/28 08:04:55;;;;;;;8.00;2.42;;;20.30;99.90;;;19.17;90.90;101074.34;4179757;28;20028;-73
2021/07/28 08:06:56;;;;;;;4.85;2.13;;;20.40;99.90;;;18.95;89.09;101073.66;4182242;28;20036;-73
2021/07/28 08:08:56;;;;;;;6.88;2.40;;;20.50;99.90;;;19.05;88.05;101075.97;4149522;28;20069;-72
2021/07/28 08:10:59;;;;;;;9.27;2.45;;;20.30;99.90;;;19.14;88.99;101075.56;4166796;28;20397;-72
2021/07/28 08:13:00;;;;;;;9.00;2.70;;;20.20;99.90;;;19.14;89.11;101072.91;4166755;28;20025;-73
2021/07/28 08:15:01;;;;;;;6.78;2.72;;;20.10;99.90;;;18.89;89.03;101070.97;4166406;28;20037;-73
2021/07/28 08:17:05;;;;;;;5.30;2.03;;;20.00;99.90;;;18.76;87.93;101077.09;4183282;28;20096;-73
2021/07/28 08:19:06;;;;;;;6.50;2.20;;;19.90;99.90;;;18.90;88.48;101072.63;4166687;28;20053;-73
2021/07/28 08:21:09;;;;;;;7.82;2.88;;;19.90;99.90;;;18.69;88.14;101077.09;4166846;28;20408;-73
2021/07/28 08:23:10;;;;;;;6.90;2.20;;;19.90;99.90;;;18.84;88.04;101070.75;4166822;28;20030;-73
2021/07/28 08:25:11;;;;;;;6.70;2.40;;;20.00;99.90;;;18.96;85.51;101072.66;4166219;28;20083;-72
2021/07/28 08:27:12;;;;;;;6.05;2.10;;;20.20;99.90;;;19.11;80.62;101069.81;4199879;28;20115;-73
2021/07/28 08:29:13;;;;;;;2.75;1.70;;;20.30;99.90;;;18.97;80.11;101073.44;4167838;28;20028;-72